Alida, Minnesota
Current Conditions -  °F | °C
As of 6:51 PM on Wednesday 17 Dec 2014 (Local Time) from KBJI Reporting Station
Clear Clear  
Wind Chill: -12°   Ceiling: Unl
Heat Index: -12°   Visibility: 10mi
Dew Point: -14°   Wind: 0mph
Humidity: 87%   Direction: NA
Pressure: 30.26"   Gusts: NA
Location:  47.4609°N, 95.2384°W
Report Text: KBJI 180051Z AUTO 00000KT 10SM CLR M12/M13 A3026 RMK AO2 T11181135
Loading
Personal Weather Stations






























Interactive Weather Map New forecast layout! Learn more

10-Day Weather Forecast

Advertisements
Track Severe Weather on mobile